Time;durP1;ratioP1;P1;durP2;ratioP2;P2;SDS_P1;SDS_P2;PMS_P1;PMS_P2;Temp;Humidity;BMP_temperature;BMP_pressure;BME280_temperature;BME280_humidity;BME280_pressure;Samples;Min_cycle;Max_cycle;Signal;HPM_P1;HPM_P2
2021/11/22 00:02:00;;;;;;;76.53;43.08;;;;;;;2.00;100.00;92945.56;5026903;28;20057;-83
2021/11/22 00:04:27;;;;;;;86.97;46.42;;;;;;;1.99;100.00;92956.66;5026273;28;20144;-83
2021/11/22 00:06:54;;;;;;;84.85;46.17;;;;;;;1.50;100.00;92861.38;5027447;28;20054;-84
2021/11/22 00:09:21;;;;;;;91.45;48.55;;;;;;;2.17;100.00;92954.88;5026911;28;20757;-83
2021/11/22 00:11:49;;;;;;;91.05;52.08;;;;;;;1.48;100.00;92848.06;5026824;28;20049;-83
2021/11/22 00:14:17;;;;;;;103.00;58.63;;;;;;;2.00;100.00;92927.81;5027631;28;20148;-84
2021/11/22 00:16:44;;;;;;;103.10;59.65;;;;;;;1.68;100.00;92889.00;5027040;28;20500;-83
2021/11/22 00:19:13;;;;;;;114.88;60.10;;;;;;;2.05;100.00;92934.97;5027128;28;20045;-84
2021/11/22 00:21:40;;;;;;;124.82;63.67;;;;;;;1.94;100.00;92935.31;5026701;28;20516;-84
2021/11/22 00:24:07;;;;;;;118.88;59.35;;;;;;;2.13;100.00;92954.41;5026373;28;20050;-83
2021/11/22 00:26:34;;;;;;;116.15;63.22;;;;;;;2.09;100.00;92945.53;5026510;28;20052;-83
2021/11/22 00:29:01;;;;;;;114.68;57.83;;;;;;;2.22;100.00;92950.88;5026859;28;20052;-84
2021/11/22 00:31:28;;;;;;;127.05;68.50;;;;;;;2.20;100.00;92949.44;5026526;28;20136;-84
2021/11/22 00:33:56;;;;;;;93.40;48.55;;;;;;;1.88;100.00;92901.28;5026630;28;20048;-84
2021/11/22 00:36:24;;;;;;;109.18;55.15;;;;;;;1.99;100.00;92900.91;5027263;28;20045;-83
2021/11/22 00:38:52;;;;;;;110.32;54.95;;;;;;;2.28;100.00;92934.22;5027043;28;20049;-83
2021/11/22 00:41:19;;;;;;;52.55;30.38;;;;;;;2.30;100.00;92913.78;5026585;28;20053;-83
2021/11/22 00:43:46;;;;;;;64.95;36.83;;;;;;;2.57;100.00;92937.88;5026865;28;20061;-83
2021/11/22 00:46:13;;;;;;;67.97;34.03;;;;;;;2.52;100.00;92917.31;5006451;28;20042;-82
2021/11/22 00:48:40;;;;;;;45.88;24.23;;;;;;;2.65;100.00;92925.13;5026942;28;21481;-83
2021/11/22 00:51:06;;;;;;;42.03;24.83;;;;;;;2.80;100.00;92940.44;5026090;28;20432;-83
2021/11/22 00:53:35;;;;;;;38.85;21.10;;;;;;;2.78;100.00;92916.22;5026582;28;20049;-83
2021/11/22 00:56:02;;;;;;;31.20;19.80;;;;;;;2.88;100.00;92926.91;5026196;28;20429;-82
2021/11/22 00:58:29;;;;;;;31.15;19.92;;;;;;;2.87;100.00;92914.41;5026358;28;20048;-82
2021/11/22 01:00:56;;;;;;;36.50;19.90;;;;;;;2.72;100.00;92894.84;5026209;28;20057;-83
2021/11/22 01:03:23;;;;;;;31.55;16.92;;;;;;;3.01;100.00;92930.63;5026164;28;20156;-83
2021/11/22 01:05:50;;;;;;;26.77;16.00;;;;;;;2.99;100.00;92920.66;5025885;28;20064;-83
2021/11/22 01:08:17;;;;;;;27.63;17.13;;;;;;;3.07;100.00;92928.19;5026260;28;20049;-83
2021/11/22 01:10:46;;;;;;;28.30;15.85;;;;;;;3.11;100.00;92923.59;5025993;28;20045;-83
2021/11/22 01:13:14;;;;;;;26.80;16.17;;;;;;;3.14;100.00;92925.00;5026326;28;20091;-83
2021/11/22 01:15:41;;;;;;;26.10;16.30;;;;;;;3.02;100.00;92900.00;5025817;28;20050;-82
2021/11/22 01:18:08;;;;;;;24.00;14.73;;;;;;;3.18;100.00;92918.59;5025843;28;20049;-82
2021/11/22 01:20:36;;;;;;;30.80;17.50;;;;;;;3.16;100.00;92913.69;5025654;28;20523;-81
2021/11/22 01:23:05;;;;;;;28.45;16.63;;;;;;;3.27;100.00;92919.31;5026111;28;20061;-82
2021/11/22 01:25:32;;;;;;;36.33;18.23;;;;;;;3.07;100.00;92895.19;5025991;28;20049;-82
2021/11/22 01:28:01;;;;;;;27.98;17.58;;;;;;;3.20;100.00;92925.06;5025935;28;20041;-82
2021/11/22 01:30:28;;;;;;;32.28;18.85;;;;;;;3.05;100.00;92917.44;5025485;28;20053;-82
2021/11/22 01:32:55;;;;;;;68.18;37.05;;;;;;;2.25;100.00;92929.47;5025882;28;20050;-81
2021/11/22 01:35:23;;;;;;;71.50;41.50;;;;;;;1.83;100.00;92937.25;5025581;28;20061;-81
2021/11/22 01:37:51;;;;;;;65.53;39.35;;;;;;;1.41;100.00;92933.19;5025768;28;20049;-81
2021/11/22 01:40:20;;;;;;;63.50;40.22;;;;;;;0.87;100.00;92882.16;5026142;28;20413;-82
2021/11/22 01:42:48;;;;;;;63.00;40.42;;;;;;;0.77;100.00;92916.91;5025072;28;20059;-82
2021/11/22 01:45:18;;;;;;;67.05;40.88;;;;;;;0.66;100.00;92926.38;5025387;28;20398;-82
2021/11/22 01:47:46;;;;;;;69.18;40.30;;;;;;;0.40;100.00;92918.91;5025002;28;20527;-83
2021/11/22 01:50:15;;;;;;;78.75;45.03;;;;;;;0.58;100.00;92938.22;5025375;28;20057;-82
2021/11/22 01:52:43;;;;;;;94.57;49.67;;;;;;;0.52;100.00;92902.50;5026349;28;20041;-82
2021/11/22 01:55:14;;;;;;;89.60;52.22;;;;;;;0.61;100.00;92930.34;5028570;28;20053;-83
2021/11/22 01:57:41;;;;;;;83.57;49.67;;;;;;;0.36;100.00;92910.84;5007517;28;20053;-82
2021/11/22 02:00:11;;;;;;;82.63;50.67;;;;;;;0.16;100.00;92910.34;5029135;28;20379;-83
2021/11/22 02:02:40;;;;;;;79.53;49.22;;;;;;;0.16;100.00;92934.78;5028911;28;20053;-82
2021/11/22 02:05:09;;;;;;;73.50;44.38;;;;;;;-0.24;100.00;92892.34;5029202;28;20045;-82
2021/11/22 02:07:36;;;;;;;134.10;70.68;;;;;;;0.09;100.00;92927.06;5029403;28;20489;-82
2021/11/22 02:10:03;;;;;;;70.22;41.47;;;;;;;-0.40;100.00;92885.50;5029324;28;20049;-82
2021/11/22 02:12:32;;;;;;;99.38;61.42;;;;;;;-0.15;100.00;92916.69;5029185;28;20497;-82
2021/11/22 02:14:59;;;;;;;104.57;65.35;;;;;;;-0.17;100.00;92913.53;5029616;28;20053;-82
2021/11/22 02:17:26;;;;;;;85.00;46.30;;;;;;;-0.23;100.00;92938.59;5029392;28;20059;-83
2021/11/22 02:19:58;;;;;;;84.60;46.35;;;;;;;-0.38;100.00;92929.03;5029611;28;20050;-81
2021/11/22 02:22:26;;;;;;;85.18;47.72;;;;;;;-0.33;100.00;92923.56;5029846;28;20158;-81
2021/11/22 02:24:53;;;;;;;84.90;47.45;;;;;;;-0.31;100.00;92921.66;5029771;28;20096;-81
2021/11/22 02:27:20;;;;;;;86.50;46.10;;;;;;;-0.33;100.00;92919.28;5029354;28;20064;-83
2021/11/22 02:29:47;;;;;;;80.35;45.50;;;;;;;-0.44;100.00;92891.78;5029414;28;20145;-82
2021/11/22 02:32:14;;;;;;;92.22;46.28;;;;;;;-0.28;100.00;92921.34;5029523;28;20512;-83
2021/11/22 02:34:41;;;;;;;86.32;45.22;;;;;;;-0.29;100.00;92912.19;5029133;28;20064;-83
2021/11/22 02:37:10;;;;;;;91.38;46.97;;;;;;;-0.49;100.00;92902.34;5028817;28;20508;-83
2021/11/22 02:39:37;;;;;;;96.32;48.40;;;;;;;-0.68;100.00;92881.41;5029308;28;20527;-82
2021/11/22 02:42:04;;;;;;;94.25;47.95;;;;;;;-0.79;100.00;92871.56;5029067;28;20421;-82
2021/11/22 02:44:31;;;;;;;87.43;48.53;;;;;;;-0.34;100.00;92932.06;5028987;28;20045;-83
2021/11/22 02:46:58;;;;;;;98.43;49.25;;;;;;;-0.61;100.00;92875.78;5029184;28;20087;-83
2021/11/22 02:49:25;;;;;;;90.68;47.63;;;;;;;-0.37;100.00;92912.94;5028858;28;20524;-83
2021/11/22 02:51:52;;;;;;;84.47;45.35;;;;;;;-0.72;100.00;92887.72;5029240;28;20049;-82
2021/11/22 02:54:20;;;;;;;98.72;48.95;;;;;;;-0.27;100.00;92933.06;5029180;28;20459;-82
2021/11/22 02:56:47;;;;;;;110.60;54.10;;;;;;;-0.35;100.00;92923.69;5028734;28;20055;-83
2021/11/22 02:59:14;;;;;;;99.25;51.08;;;;;;;-0.34;100.00;92924.47;5029363;28;20050;-83
2021/11/22 03:01:42;;;;;;;94.25;50.95;;;;;;;-0.28;100.00;92931.44;5028953;28;20464;-83
2021/11/22 03:04:09;;;;;;;100.78;49.63;;;;;;;-0.71;100.00;92846.41;5028946;28;20115;-83
2021/11/22 03:06:36;;;;;;;95.35;48.85;;;;;;;-0.46;100.00;92868.44;5029233;28;20049;-83
2021/11/22 03:09:03;;;;;;;89.07;47.50;;;;;;;0.02;100.00;92921.81;5029060;28;20409;-82
2021/11/22 03:11:32;;;;;;;93.00;47.47;;;;;;;0.09;100.00;92920.25;5029079;28;20046;-82
2021/11/22 03:13:59;;;;;;;90.50;46.75;;;;;;;0.08;100.00;92928.78;5029167;28;20042;-82
2021/11/22 03:16:29;;;;;;;95.03;48.22;;;;;;;0.18;100.00;92922.81;5028701;28;20523;-82
2021/11/22 03:18:56;;;;;;;93.93;46.35;;;;;;;0.08;100.00;92874.94;5029260;28;20141;-82
2021/11/22 03:21:23;;;;;;;118.38;46.17;;;;;;;0.08;100.00;92892.63;5028957;28;20052;-82
2021/11/22 03:23:50;;;;;;;98.18;44.67;;;;;;;0.10;100.00;92926.09;5029059;28;20415;-82
2021/11/22 03:26:17;;;;;;;87.30;43.10;;;;;;;-0.07;100.00;92937.88;5028716;28;20056;-83
2021/11/22 03:28:46;;;;;;;88.57;43.70;;;;;;;-0.21;100.00;92927.41;5028789;28;20502;-84
2021/11/22 03:31:13;;;;;;;87.45;43.13;;;;;;;0.04;100.00;92922.44;5028724;28;20050;-83
2021/11/22 03:33:41;;;;;;;98.22;44.10;;;;;;;0.25;100.00;92914.47;5029029;28;20049;-83
2021/11/22 03:36:08;;;;;;;88.38;43.42;;;;;;;0.45;100.00;92939.47;5028682;28;20497;-83
2021/11/22 03:38:35;;;;;;;90.68;43.20;;;;;;;0.20;100.00;92878.78;5029575;28;20050;-83
2021/11/22 03:41:09;;;;;;;82.05;40.83;;;;;;;0.07;100.00;92875.88;5031559;28;20056;-83
2021/11/22 03:43:43;;;;;;;92.07;41.33;;;;;;;0.19;100.00;92929.44;5033082;28;20045;-83
2021/11/22 03:46:11;;;;;;;102.60;43.78;;;;;;;-0.33;100.00;92871.34;5032606;28;20045;-83
2021/11/22 03:48:39;;;;;;;84.65;39.67;;;;;;;-0.06;100.00;92894.00;5033026;28;20045;-84
2021/11/22 03:51:06;;;;;;;107.28;44.15;;;;;;;-0.03;100.00;92939.97;5034437;28;20523;-85
2021/11/22 03:53:33;;;;;;;85.68;40.67;;;;;;;-0.31;100.00;92929.25;5032696;28;20124;-84
2021/11/22 03:56:00;;;;;;;94.47;41.08;;;;;;;-0.21;100.00;92946.78;5032582;28;20053;-84
2021/11/22 03:58:27;;;;;;;88.70;39.33;;;;;;;-0.34;100.00;92932.84;5032058;28;20054;-84
2021/11/22 04:00:54;;;;;;;94.88;42.05;;;;;;;-0.47;100.00;92923.16;5032308;28;20061;-85
2021/11/22 04:03:22;;;;;;;108.25;45.40;;;;;;;-0.61;100.00;92946.44;5032000;28;20060;-85
2021/11/22 04:05:49;;;;;;;151.95;65.00;;;;;;;-1.16;100.00;92897.81;5031699;28;20049;-85
2021/11/22 04:08:17;;;;;;;96.10;45.00;;;;;;;-1.41;100.00;92911.00;5031446;28;20060;-85
2021/11/22 04:10:44;;;;;;;90.70;44.90;;;;;;;-1.43;100.00;92882.63;5031760;28;20042;-85
2021/11/22 04:13:11;;;;;;;101.80;46.28;;;;;;;-1.46;100.00;92887.94;5032443;28;20069;-84
2021/11/22 04:15:39;;;;;;;85.47;42.00;;;;;;;-0.93;100.00;92961.16;5032281;28;20046;-84
2021/11/22 04:18:07;;;;;;;105.20;44.00;;;;;;;-0.74;100.00;92955.16;5031320;28;20057;-84
2021/11/22 04:20:36;;;;;;;106.38;47.13;;;;;;;-1.34;100.00;92883.50;5031376;28;20432;-84
2021/11/22 04:23:04;;;;;;;96.07;44.72;;;;;;;-1.28;100.00;92870.31;5031486;28;20049;-85
2021/11/22 04:25:32;;;;;;;121.60;50.83;;;;;;;-0.90;100.00;92882.69;5031180;28;20140;-84
2021/11/22 04:27:59;;;;;;;112.65;47.97;;;;;;;-0.52;100.00;92917.00;5031095;28;20054;-84
2021/11/22 04:30:26;;;;;;;118.32;49.42;;;;;;;-0.62;100.00;92933.00;5009079;28;20099;-85
2021/11/22 04:32:54;;;;;;;125.30;49.88;;;;;;;-1.13;100.00;92864.72;5031075;28;20085;-86
2021/11/22 04:35:20;;;;;;;117.28;50.50;;;;;;;-0.94;100.00;92891.50;5031605;28;20091;-86
2021/11/22 04:37:49;;;;;;;136.23;59.78;;;;;;;-1.54;100.00;92852.59;5031209;28;20069;-86
2021/11/22 04:40:18;;;;;;;129.88;52.78;;;;;;;-1.21;100.00;92938.56;5031249;28;20056;-86
2021/11/22 04:42:47;;;;;;;139.30;51.35;;;;;;;-1.26;100.00;92976.00;5030885;28;20045;-86
2021/11/22 04:45:15;;;;;;;114.15;48.80;;;;;;;-1.36;100.00;92973.53;5031993;28;20442;-86
2021/11/22 04:47:43;;;;;;;110.43;52.03;;;;;;;-1.94;100.00;92898.19;5031673;28;20050;-86
2021/11/22 04:50:10;;;;;;;106.15;48.30;;;;;;;-1.38;100.00;92986.28;5030636;28;20049;-86
2021/11/22 04:52:37;;;;;;;92.63;42.60;;;;;;;-1.38;100.00;92970.38;5031493;28;20049;-86
2021/11/22 04:55:07;;;;;;;83.78;39.10;;;;;;;-1.21;100.00;92982.19;5031614;28;20373;-85
2021/11/22 04:57:34;;;;;;;75.10;35.78;;;;;;;-1.24;100.00;92982.47;5031150;28;20056;-85
2021/11/22 05:00:02;;;;;;;77.85;39.88;;;;;;;-1.32;100.00;92981.59;5030799;28;20132;-85
2021/11/22 05:02:29;;;;;;;104.55;46.22;;;;;;;-1.44;100.00;92986.06;5030504;28;20053;-86
2021/11/22 05:04:56;;;;;;;95.13;42.83;;;;;;;-1.33;100.00;92982.53;5030785;28;20053;-84
2021/11/22 05:07:23;;;;;;;94.32;43.20;;;;;;;-1.39;100.00;92983.91;5030711;28;20055;-84
2021/11/22 05:09:50;;;;;;;105.85;48.75;;;;;;;-1.69;100.00;92923.63;5030396;28;20049;-83
2021/11/22 05:12:19;;;;;;;92.45;41.58;;;;;;;-1.30;100.00;92964.63;5030569;28;20390;-84
2021/11/22 05:14:46;;;;;;;94.15;41.67;;;;;;;-0.96;100.00;92982.41;5030128;28;20056;-84
2021/11/22 05:17:13;;;;;;;99.95;44.47;;;;;;;-0.82;100.00;92963.44;5030431;28;20045;-83
2021/11/22 05:19:40;;;;;;;97.43;48.25;;;;;;;-0.67;100.00;92973.03;5030736;28;20046;-84
2021/11/22 05:22:07;;;;;;;103.65;44.30;;;;;;;-1.03;100.00;92915.84;5030787;28;20055;-84
2021/11/22 05:24:34;;;;;;;94.40;43.92;;;;;;;-0.48;100.00;92988.91;5030341;28;20056;-84
2021/11/22 05:27:03;;;;;;;107.03;49.72;;;;;;;-0.67;100.00;92935.19;5026132;28;20046;-84
2021/11/22 05:29:32;;;;;;;97.82;45.55;;;;;;;-0.95;100.00;92872.28;5028284;28;20045;-84
2021/11/22 05:31:59;;;;;;;90.03;41.80;;;;;;;-0.30;100.00;92988.88;5030119;28;20041;-84
2021/11/22 05:34:25;;;;;;;84.13;41.70;;;;;;;-0.38;100.00;92983.78;5029576;28;20045;-84
2021/11/22 05:36:52;;;;;;;108.68;48.10;;;;;;;-0.70;100.00;92933.75;5029989;28;20049;-83
2021/11/22 05:39:19;;;;;;;91.53;41.53;;;;;;;-0.50;100.00;92947.91;5029677;28;20041;-83
2021/11/22 05:41:46;;;;;;;88.03;40.63;;;;;;;-0.10;100.00;92963.44;5029972;28;20056;-84
2021/11/22 05:44:13;;;;;;;86.88;40.53;;;;;;;0.25;100.00;92995.31;5030111;28;20522;-86
2021/11/22 05:46:42;;;;;;;65.68;33.30;;;;;;;0.29;100.00;93000.06;5029771;28;20053;-86
2021/11/22 05:49:09;;;;;;;65.47;35.80;;;;;;;0.41;100.00;93003.88;5029756;28;20140;-86
2021/11/22 05:51:36;;;;;;;69.32;35.20;;;;;;;0.55;100.00;93006.78;5029345;28;20156;-86
2021/11/22 05:54:03;;;;;;;75.70;39.47;;;;;;;0.55;100.00;93007.56;5029845;28;20068;-85
2021/11/22 05:56:30;;;;;;;78.32;41.92;;;;;;;0.10;100.00;92948.84;5029608;28;20084;-85
2021/11/22 05:58:57;;;;;;;90.18;45.75;;;;;;;-0.11;100.00;92977.78;5029361;28;20095;-85
2021/11/22 06:01:24;;;;;;;88.35;41.97;;;;;;;-0.85;100.00;92912.50;5029364;28;20517;-85
2021/11/22 06:03:53;;;;;;;100.78;46.13;;;;;;;-0.10;100.00;93014.69;5028308;28;20061;-84
2021/11/22 06:06:20;;;;;;;92.10;42.42;;;;;;;-0.20;100.00;92976.94;5029274;28;20049;-84
2021/11/22 06:08:46;;;;;;;96.93;48.25;;;;;;;-0.15;100.00;92984.88;5029028;28;20552;-84
2021/11/22 06:11:13;;;;;;;122.00;50.20;;;;;;;-0.07;100.00;93018.66;5029157;28;20236;-84
2021/11/22 06:13:40;;;;;;;93.03;42.55;;;;;;;-0.15;100.00;93017.69;5029121;28;20053;-84
2021/11/22 06:16:07;;;;;;;94.05;44.45;;;;;;;0.04;100.00;93018.41;5029258;28;20045;-85
2021/11/22 06:18:34;;;;;;;94.22;43.15;;;;;;;-0.09;100.00;93023.06;5029405;28;20053;-85
2021/11/22 06:21:03;;;;;;;101.00;47.25;;;;;;;-0.15;100.00;93022.72;5029114;28;20079;-85
2021/11/22 06:23:30;;;;;;;96.07;47.45;;;;;;;-0.26;100.00;93022.97;5028855;28;20053;-84
2021/11/22 06:25:57;;;;;;;93.43;44.60;;;;;;;-0.48;100.00;92958.63;5028922;28;20050;-84
2021/11/22 06:28:24;;;;;;;106.13;54.72;;;;;;;0.10;100.00;93011.97;5028849;28;20525;-84
2021/11/22 06:30:51;;;;;;;116.40;53.90;;;;;;;-0.09;100.00;92978.41;5028969;28;20416;-85
2021/11/22 06:33:18;;;;;;;143.00;56.47;;;;;;;0.31;100.00;93004.00;5029043;28;20049;-84
2021/11/22 06:35:45;;;;;;;119.80;49.55;;;;;;;0.39;100.00;93003.25;5028570;28;20049;-84
2021/11/22 06:38:14;;;;;;;106.10;46.33;;;;;;;0.62;100.00;92998.44;5028715;28;20515;-85
2021/11/22 06:40:41;;;;;;;102.75;47.97;;;;;;;0.48;100.00;92951.81;5029226;28;20444;-84
2021/11/22 06:43:08;;;;;;;127.47;54.85;;;;;;;0.92;100.00;92982.84;5023964;28;20087;-84
2021/11/22 06:45:35;;;;;;;130.10;56.30;;;;;;;1.02;100.00;92993.59;5027558;28;20493;-83
2021/11/22 06:48:02;;;;;;;113.28;51.42;;;;;;;1.05;100.00;92980.66;5028787;28;20037;-84
2021/11/22 06:50:29;;;;;;;119.57;49.72;;;;;;;1.20;100.00;92985.88;5029192;28;20052;-84
2021/11/22 06:52:56;;;;;;;129.13;53.67;;;;;;;1.11;100.00;92970.84;5028692;28;20054;-83
2021/11/22 06:55:24;;;;;;;124.18;54.17;;;;;;;1.43;100.00;92990.31;5029389;28;20045;-83
2021/11/22 06:57:51;;;;;;;138.43;65.57;;;;;;;1.48;100.00;92994.88;5029688;28;20054;-83
2021/11/22 07:00:20;;;;;;;164.57;77.78;;;;;;;1.27;100.00;92980.97;5029403;28;20527;-83
2021/11/22 07:02:51;;;;;;;163.82;70.63;;;;;;;1.03;100.00;92997.72;5029196;28;20574;-82
2021/11/22 07:05:18;;;;;;;153.70;66.78;;;;;;;0.58;100.00;92960.97;5029581;28;20056;-82
2021/11/22 07:07:45;;;;;;;146.80;62.95;;;;;;;0.71;100.00;92983.28;5029222;28;20057;-83
2021/11/22 07:10:13;;;;;;;148.32;62.67;;;;;;;0.79;100.00;93006.84;5028657;28;20140;-82
2021/11/22 07:12:41;;;;;;;155.40;69.95;;;;;;;0.38;100.00;92959.50;5028660;28;20060;-82
2021/11/22 07:15:10;;;;;;;165.48;74.10;;;;;;;0.57;100.00;92992.25;5031142;28;20053;-83
2021/11/22 07:17:37;;;;;;;142.50;70.18;;;;;;;0.63;100.00;92984.84;5032459;28;20567;-82
2021/11/22 07:20:05;;;;;;;120.53;62.33;;;;;;;0.70;100.00;93006.97;5032804;28;20070;-82
2021/11/22 07:22:32;;;;;;;116.80;60.38;;;;;;;0.88;100.00;93010.19;5032817;28;20053;-82
2021/11/22 07:24:59;;;;;;;136.10;71.43;;;;;;;0.92;100.00;92983.63;5032701;28;20081;-82
2021/11/22 07:27:26;;;;;;;129.18;67.30;;;;;;;1.16;100.00;93006.59;5032233;28;20054;-83
2021/11/22 07:29:56;;;;;;;125.00;67.57;;;;;;;1.16;100.00;92997.25;5032630;28;20559;-82
2021/11/22 07:32:23;;;;;;;133.00;75.22;;;;;;;1.33;100.00;93003.13;5032666;28;20048;-83
2021/11/22 07:34:50;;;;;;;127.40;77.00;;;;;;;0.88;100.00;92928.47;5032535;28;20049;-82
2021/11/22 07:37:17;;;;;;;136.80;82.15;;;;;;;1.26;100.00;92958.34;5032495;28;20394;-83
2021/11/22 07:39:44;;;;;;;114.30;68.88;;;;;;;1.69;100.00;93008.78;5032189;28;20049;-83
2021/11/22 07:42:11;;;;;;;121.20;69.38;;;;;;;1.50;100.00;92956.75;5032700;28;20045;-83
2021/11/22 07:44:38;;;;;;;98.63;57.40;;;;;;;2.04;100.00;93003.50;5032689;28;20056;-82
2021/11/22 07:47:06;;;;;;;96.28;54.20;;;;;;;1.77;100.00;92949.75;5032191;28;20049;-84
2021/11/22 07:49:34;;;;;;;93.13;55.55;;;;;;;2.07;100.00;92996.38;5028340;28;20057;-84
2021/11/22 07:52:01;;;;;;;88.90;52.55;;;;;;;1.93;100.00;92949.72;5029720;28;20046;-84
2021/11/22 07:54:28;;;;;;;106.65;55.53;;;;;;;1.83;100.00;92919.50;5030739;28;20523;-84
2021/11/22 07:56:55;;;;;;;93.95;55.28;;;;;;;2.59;100.00;92993.50;5031500;28;20057;-84
2021/11/22 07:59:21;;;;;;;88.55;51.63;;;;;;;2.59;100.00;92979.06;5032138;28;20129;-82
2021/11/22 08:01:49;;;;;;;80.05;46.25;;;;;;;2.05;100.00;92886.00;5031303;28;20056;-82
2021/11/22 08:04:18;;;;;;;79.15;46.63;;;;;;;2.92;100.00;92988.25;5031411;28;20053;-81
2021/11/22 08:06:48;;;;;;;76.43;44.50;;;;;;;2.81;100.00;92956.44;5031738;28;20049;-81
2021/11/22 08:09:23;;;;;;;68.28;40.95;;;;;;;3.07;100.00;92970.56;5031610;28;20060;-82
2021/11/22 08:12:03;;;;;;;61.90;37.20;;;;;;;3.41;100.00;92988.84;5031464;28;20049;-82
2021/11/22 08:14:30;;;;;;;69.22;38.35;;;;;;;3.44;100.00;92991.06;5031401;28;20045;-83
2021/11/22 08:16:57;;;;;;;52.38;32.83;;;;;;;3.58;100.00;92990.31;5031291;28;20461;-83
2021/11/22 08:19:25;;;;;;;55.95;32.08;;;;;;;3.85;100.00;92989.94;5031203;28;20497;-85
2021/11/22 08:21:52;;;;;;;59.45;33.22;;;;;;;4.11;100.00;92992.03;5031196;28;20050;-83
2021/11/22 08:24:20;;;;;;;58.60;34.28;;;;;;;4.37;100.00;92997.66;5031348;28;20060;-83
2021/11/22 08:26:47;;;;;;;67.57;36.70;;;;;;;4.49;100.00;92990.38;5030149;28;20068;-83
2021/11/22 08:29:14;;;;;;;62.33;32.38;;;;;;;4.74;100.00;92987.50;5031025;28;20485;-83
2021/11/22 08:31:40;;;;;;;54.65;32.13;;;;;;;4.70;100.00;92960.84;5031344;28;20046;-82
2021/11/22 08:34:07;;;;;;;57.35;30.90;;;;;;;5.08;100.00;92978.44;5030749;28;20048;-83
2021/11/22 08:36:36;;;;;;;56.22;30.50;;;;;;;5.35;100.00;92978.69;5030686;28;20049;-83
2021/11/22 08:39:03;;;;;;;60.38;31.33;;;;;;;5.38;100.00;92973.25;5030789;28;20049;-83
2021/11/22 08:41:31;;;;;;;52.65;30.60;;;;;;;5.14;100.00;92906.44;5031501;28;20147;-83
2021/11/22 08:43:58;;;;;;;52.38;28.63;;;;;;;5.34;100.00;92921.88;5031137;28;20053;-82
2021/11/22 08:46:25;;;;;;;52.67;29.05;;;;;;;5.89;100.00;92964.59;5030962;28;20060;-82
2021/11/22 08:48:52;;;;;;;55.05;29.83;;;;;;;5.80;100.00;92914.75;5030579;28;20056;-82
2021/11/22 08:51:20;;;;;;;54.38;29.92;;;;;;;6.37;100.00;92975.88;5031052;28;20136;-83
2021/11/22 08:53:48;;;;;;;48.33;29.50;;;;;;;5.94;100.00;92885.00;5030795;28;20144;-83
2021/11/22 08:56:15;;;;;;;48.50;27.95;;;;;;;6.52;100.00;92959.63;5030512;28;20532;-81
2021/11/22 08:58:42;;;;;;;50.47;27.45;;;;;;;6.53;100.00;92930.59;5030764;28;20104;-82
2021/11/22 09:01:09;;;;;;;52.75;30.65;;;;;;;6.89;100.00;92957.59;5030657;28;20136;-83
2021/11/22 09:03:38;;;;;;;60.90;31.98;;;;;;;6.66;100.00;92917.06;5030704;28;20067;-83
2021/11/22 09:06:05;;;;;;;49.28;28.67;;;;;;;7.16;100.00;92975.53;5030608;28;20111;-82
2021/11/22 09:08:32;;;;;;;51.92;34.58;;;;;;;7.31;100.00;92980.47;5030378;28;20060;-82
2021/11/22 09:11:01;;;;;;;48.25;29.25;;;;;;;7.52;100.00;92975.34;5031128;28;20118;-82
2021/11/22 09:13:27;;;;;;;50.20;26.95;;;;;;;7.67;100.00;92973.41;5030638;28;20056;-82
2021/11/22 09:15:54;;;;;;;57.92;26.20;;;;;;;7.66;100.00;92965.91;5030838;28;20046;-83
2021/11/22 09:18:21;;;;;;;49.50;25.60;;;;;;;7.75;100.00;92952.75;5030697;28;20524;-83
2021/11/22 09:20:48;;;;;;;48.10;28.52;;;;;;;7.86;100.00;92968.47;5030398;28;20059;-83
2021/11/22 09:23:16;;;;;;;63.30;31.02;;;;;;;7.90;100.00;92959.41;5030625;28;20596;-83
2021/11/22 09:25:43;;;;;;;49.67;27.33;;;;;;;8.16;100.00;92948.34;5030232;28;20089;-83
2021/11/22 09:28:11;;;;;;;62.47;31.15;;;;;;;8.50;100.00;92965.38;5029748;28;20055;-83
2021/11/22 09:30:38;;;;;;;59.00;29.92;;;;;;;8.57;100.00;92932.09;5030081;28;20057;-83
2021/11/22 09:33:09;;;;;;;54.67;27.85;;;;;;;9.05;100.00;92964.97;5029643;28;20544;-83
2021/11/22 09:35:36;;;;;;;53.92;25.42;;;;;;;9.22;100.00;92961.91;5029805;28;20057;-84
2021/11/22 09:38:03;;;;;;;58.58;32.47;;;;;;;9.34;100.00;92955.13;5029921;28;20049;-83
2021/11/22 09:40:30;;;;;;;38.80;20.73;;;;;;;9.39;100.00;92941.66;5029884;28;20049;-84
2021/11/22 09:42:57;;;;;;;40.17;21.88;;;;;;;9.62;99.97;92945.44;5029903;28;20546;-84
2021/11/22 09:45:28;;;;;;;23.85;12.02;;;;;;;9.85;99.02;92959.44;5029731;28;20060;-84
2021/11/22 09:47:56;;;;;;;18.98;11.85;;;;;;;9.86;97.58;92948.97;5029538;28;20461;-84
2021/11/22 09:50:23;;;;;;;30.52;15.13;;;;;;;10.08;96.01;92963.97;5029385;28;20084;-84
2021/11/22 09:52:50;;;;;;;17.98;10.30;;;;;;;9.84;95.86;92922.78;5029840;28;20042;-84
2021/11/22 09:55:17;;;;;;;39.22;21.23;;;;;;;10.19;94.43;92965.09;5029484;28;20042;-84
2021/11/22 09:57:44;;;;;;;33.38;17.63;;;;;;;10.12;95.66;92944.59;5029726;28;20440;-84
2021/11/22 10:00:14;;;;;;;13.80;8.30;;;;;;;10.27;94.91;92966.56;5029371;28;20132;-84
2021/11/22 10:02:49;;;;;;;26.75;13.90;;;;;;;10.36;94.90;92961.91;5029048;28;20107;-84
2021/11/22 10:05:25;;;;;;;18.77;10.13;;;;;;;10.36;94.69;92942.19;5029522;28;20386;-84
2021/11/22 10:08:03;;;;;;;22.95;9.95;;;;;;;10.40;93.93;92932.25;5029321;28;20526;-84
2021/11/22 10:10:34;;;;;;;21.00;11.82;;;;;;;10.63;92.78;92947.03;5029334;28;20057;-84
2021/11/22 10:13:03;;;;;;;14.32;7.53;;;;;;;10.60;93.20;92939.00;5029124;28;20053;-84
2021/11/22 10:15:32;;;;;;;16.67;9.60;;;;;;;10.67;93.06;92937.91;5028950;28;20052;-84
2021/11/22 10:18:00;;;;;;;10.38;6.68;;;;;;;10.75;92.54;92943.75;5029152;28;20505;-84
2021/11/22 10:20:29;;;;;;;36.95;20.35;;;;;;;10.77;92.60;92921.19;5029275;28;20057;-84
2021/11/22 10:23:04;;;;;;;17.40;9.57;;;;;;;10.91;92.02;92940.56;5029075;28;20050;-84
2021/11/22 10:25:35;;;;;;;13.57;8.15;;;;;;;10.74;90.80;92908.78;5029328;28;20412;-84
2021/11/22 10:28:08;;;;;;;21.90;11.43;;;;;;;11.00;90.88;92943.63;5029336;28;20076;-84
2021/11/22 10:30:37;;;;;;;32.85;18.67;;;;;;;10.93;90.73;92930.84;5029409;28;20045;-84
2021/11/22 10:33:07;;;;;;;16.83;8.88;;;;;;;10.98;90.40;92947.41;5029291;28;20061;-84
2021/11/22 10:35:36;;;;;;;21.05;12.80;;;;;;;10.63;90.52;92900.81;5029066;28;20512;-84
2021/11/22 10:38:07;;;;;;;17.30;10.55;;;;;;;10.85;89.65;92925.22;5029545;28;20088;-85
2021/11/22 10:40:38;;;;;;;18.10;10.60;;;;;;;10.94;90.00;92940.13;5029136;28;20056;-84
2021/11/22 10:43:06;;;;;;;23.85;12.98;;;;;;;10.98;89.69;92942.25;5029615;28;20064;-84
2021/11/22 10:45:36;;;;;;;15.20;9.73;;;;;;;11.11;90.33;92933.59;5029057;28;20053;-84
2021/11/22 10:48:25;;;;;;;12.07;8.00;;;;;;;10.95;89.25;92918.56;5029691;28;20056;-85
2021/11/22 10:51:03;;;;;;;15.85;8.65;;;;;;;10.94;88.67;92903.38;5033637;28;20049;-84
2021/11/22 10:53:42;;;;;;;17.15;10.75;;;;;;;11.17;88.59;92922.44;5033388;28;20088;-84
2021/11/22 10:56:12;;;;;;;21.15;11.93;;;;;;;11.32;88.64;92940.00;5033470;28;20060;-84
2021/11/22 10:58:49;;;;;;;17.85;9.50;;;;;;;11.04;88.59;92866.84;5033626;28;20140;-84
2021/11/22 11:01:32;;;;;;;12.30;7.55;;;;;;;11.29;88.04;92902.66;5033103;28;20053;-84
2021/11/22 11:04:03;;;;;;;10.02;6.18;;;;;;;11.45;87.67;92916.69;5033439;28;20145;-85
2021/11/22 11:06:45;;;;;;;10.55;5.72;;;;;;;11.38;86.99;92918.53;5033295;28;20056;-84
2021/11/22 11:09:16;;;;;;;10.77;6.05;;;;;;;11.47;86.42;92924.16;5033328;28;20136;-85
2021/11/22 11:11:43;;;;;;;13.13;5.70;;;;;;;11.47;86.94;92913.88;5032940;28;20137;-85
2021/11/22 11:14:12;;;;;;;10.63;5.88;;;;;;;11.40;86.78;92919.13;5027710;28;20537;-85
2021/11/22 11:16:40;;;;;;;10.77;5.45;;;;;;;11.47;87.10;92924.16;5031215;28;20050;-85
2021/11/22 11:19:10;;;;;;;9.90;4.60;;;;;;;11.43;86.42;92923.81;5032963;28;20046;-84